sensor_id;sensor_type;location;lat;lon;timestamp;pressure;altitude;pressure_sealevel;temperature;humidity
41140;BME280;26881;48.784;9.192;2023-10-31T00:01:41;97003.50;;;11.79;100.00
41140;BME280;26881;48.784;9.192;2023-10-31T00:07:03;97002.41;;;11.81;100.00
41140;BME280;26881;48.784;9.192;2023-10-31T00:12:25;97017.16;;;11.73;100.00
41140;BME280;26881;48.784;9.192;2023-10-31T00:17:47;97044.41;;;11.60;100.00
41140;BME280;26881;48.784;9.192;2023-10-31T00:23:09;97038.38;;;11.70;100.00
41140;BME280;26881;48.784;9.192;2023-10-31T00:28:31;97035.88;;;11.58;100.00
41140;BME280;26881;48.784;9.192;2023-10-31T00:33:53;97053.25;;;11.59;100.00
41140;BME280;26881;48.784;9.192;2023-10-31T00:39:15;97065.22;;;11.52;100.00
41140;BME280;26881;48.784;9.192;2023-10-31T00:44:37;97056.53;;;11.52;100.00
41140;BME280;26881;48.784;9.192;2023-10-31T00:49:59;97072.78;;;11.55;100.00
41140;BME280;26881;48.784;9.192;2023-10-31T00:55:21;97067.56;;;11.55;100.00
41140;BME280;26881;48.784;9.192;2023-10-31T01:00:43;97076.38;;;11.54;100.00
41140;BME280;26881;48.784;9.192;2023-10-31T01:06:05;97077.31;;;11.53;100.00
41140;BME280;26881;48.784;9.192;2023-10-31T01:11:27;97079.94;;;11.53;100.00
41140;BME280;26881;48.784;9.192;2023-10-31T01:16:49;97082.66;;;11.42;100.00
41140;BME280;26881;48.784;9.192;2023-10-31T01:22:10;97087.16;;;11.30;100.00
41140;BME280;26881;48.784;9.192;2023-10-31T01:27:33;97092.53;;;11.29;100.00
41140;BME280;26881;48.784;9.192;2023-10-31T01:32:55;97117.16;;;11.16;100.00
41140;BME280;26881;48.784;9.192;2023-10-31T01:38:17;97118.59;;;11.09;100.00
41140;BME280;26881;48.784;9.192;2023-10-31T01:43:39;97121.81;;;10.92;100.00
41140;BME280;26881;48.784;9.192;2023-10-31T01:49:01;97131.03;;;10.86;100.00
41140;BME280;26881;48.784;9.192;2023-10-31T01:54:23;97139.16;;;10.72;100.00
41140;BME280;26881;48.784;9.192;2023-10-31T01:59:45;97147.59;;;10.75;100.00
41140;BME280;26881;48.784;9.192;2023-10-31T02:05:07;97150.25;;;10.64;100.00
41140;BME280;26881;48.784;9.192;2023-10-31T02:10:29;97164.00;;;10.78;100.00
41140;BME280;26881;48.784;9.192;2023-10-31T02:15:50;97165.78;;;10.77;99.56
41140;BME280;26881;48.784;9.192;2023-10-31T02:21:12;97164.75;;;10.68;100.00
41140;BME280;26881;48.784;9.192;2023-10-31T02:26:34;97173.13;;;10.51;100.00
41140;BME280;26881;48.784;9.192;2023-10-31T02:31:56;97179.94;;;10.42;100.00
41140;BME280;26881;48.784;9.192;2023-10-31T02:37:18;97189.34;;;10.33;100.00
41140;BME280;26881;48.784;9.192;2023-10-31T02:42:40;97187.66;;;10.32;100.00
41140;BME280;26881;48.784;9.192;2023-10-31T02:48:02;97181.06;;;10.28;100.00
41140;BME280;26881;48.784;9.192;2023-10-31T02:53:24;97192.66;;;10.24;100.00
41140;BME280;26881;48.784;9.192;2023-10-31T02:58:46;97199.31;;;10.40;100.00
41140;BME280;26881;48.784;9.192;2023-10-31T03:04:08;97209.53;;;10.31;100.00
41140;BME280;26881;48.784;9.192;2023-10-31T03:09:30;97203.59;;;10.29;100.00
41140;BME280;26881;48.784;9.192;2023-10-31T03:14:52;97212.84;;;10.22;100.00
41140;BME280;26881;48.784;9.192;2023-10-31T03:20:14;97219.63;;;10.25;100.00
41140;BME280;26881;48.784;9.192;2023-10-31T03:25:36;97221.78;;;10.31;100.00
41140;BME280;26881;48.784;9.192;2023-10-31T03:30:58;97222.34;;;10.34;100.00
41140;BME280;26881;48.784;9.192;2023-10-31T03:36:19;97220.31;;;10.27;100.00
41140;BME280;26881;48.784;9.192;2023-10-31T03:41:41;97220.94;;;10.19;100.00
41140;BME280;26881;48.784;9.192;2023-10-31T03:47:04;97230.94;;;10.14;100.00
41140;BME280;26881;48.784;9.192;2023-10-31T03:52:26;97225.56;;;10.16;100.00
41140;BME280;26881;48.784;9.192;2023-10-31T03:57:48;97228.69;;;10.09;100.00
41140;BME280;26881;48.784;9.192;2023-10-31T04:03:09;97238.28;;;10.09;100.00
41140;BME280;26881;48.784;9.192;2023-10-31T04:08:31;97251.13;;;10.01;100.00
41140;BME280;26881;48.784;9.192;2023-10-31T04:13:53;97254.91;;;9.97;100.00
41140;BME280;26881;48.784;9.192;2023-10-31T04:19:15;97262.38;;;10.01;100.00
41140;BME280;26881;48.784;9.192;2023-10-31T04:24:37;97267.50;;;10.03;100.00
41140;BME280;26881;48.784;9.192;2023-10-31T04:29:59;97260.97;;;10.08;100.00
41140;BME280;26881;48.784;9.192;2023-10-31T04:35:21;97269.03;;;10.05;100.00
41140;BME280;26881;48.784;9.192;2023-10-31T04:40:43;97273.91;;;10.10;100.00
41140;BME280;26881;48.784;9.192;2023-10-31T04:46:05;97273.44;;;10.05;100.00
41140;BME280;26881;48.784;9.192;2023-10-31T04:51:27;97272.00;;;10.01;100.00
41140;BME280;26881;48.784;9.192;2023-10-31T04:56:49;97270.84;;;10.05;100.00
41140;BME280;26881;48.784;9.192;2023-10-31T05:02:11;97277.25;;;10.12;100.00
41140;BME280;26881;48.784;9.192;2023-10-31T05:07:33;97292.91;;;10.01;100.00
41140;BME280;26881;48.784;9.192;2023-10-31T05:12:55;97294.56;;;10.13;100.00
41140;BME280;26881;48.784;9.192;2023-10-31T05:18:17;97298.50;;;10.19;100.00
41140;BME280;26881;48.784;9.192;2023-10-31T05:24:09;97300.75;;;10.01;100.00
41140;BME280;26881;48.784;9.192;2023-10-31T05:29:30;97301.94;;;9.97;100.00
41140;BME280;26881;48.784;9.192;2023-10-31T05:34:53;97305.00;;;9.90;100.00
41140;BME280;26881;48.784;9.192;2023-10-31T05:40:15;97321.75;;;9.77;100.00
41140;BME280;26881;48.784;9.192;2023-10-31T05:45:37;97309.88;;;9.73;100.00
41140;BME280;26881;48.784;9.192;2023-10-31T05:50:59;97327.31;;;9.83;100.00
41140;BME280;26881;48.784;9.192;2023-10-31T05:56:21;97335.31;;;9.93;100.00
41140;BME280;26881;48.784;9.192;2023-10-31T06:01:43;97333.97;;;9.87;100.00
41140;BME280;26881;48.784;9.192;2023-10-31T06:07:06;97343.59;;;9.87;98.46
41140;BME280;26881;48.784;9.192;2023-10-31T06:12:28;97340.25;;;9.85;98.36
41140;BME280;26881;48.784;9.192;2023-10-31T06:17:50;97355.31;;;9.81;98.93
41140;BME280;26881;48.784;9.192;2023-10-31T06:23:12;97361.88;;;9.87;97.96
41140;BME280;26881;48.784;9.192;2023-10-31T06:28:34;97359.63;;;9.94;97.23
41140;BME280;26881;48.784;9.192;2023-10-31T06:34:04;97370.19;;;9.92;97.25
41140;BME280;26881;48.784;9.192;2023-10-31T06:39:25;97380.53;;;9.94;97.75
41140;BME280;26881;48.784;9.192;2023-10-31T06:44:47;97396.69;;;10.10;95.44
41140;BME280;26881;48.784;9.192;2023-10-31T06:50:09;97411.53;;;10.09;93.75
41140;BME280;26881;48.784;9.192;2023-10-31T06:55:31;97424.03;;;10.17;93.06
41140;BME280;26881;48.784;9.192;2023-10-31T07:00:53;97425.22;;;10.24;92.68
41140;BME280;26881;48.784;9.192;2023-10-31T07:06:21;97434.38;;;10.19;92.08
41140;BME280;26881;48.784;9.192;2023-10-31T07:11:43;97436.66;;;10.34;90.30
41140;BME280;26881;48.784;9.192;2023-10-31T07:17:05;97430.97;;;10.41;90.10
41140;BME280;26881;48.784;9.192;2023-10-31T07:22:26;97441.78;;;10.36;88.91
41140;BME280;26881;48.784;9.192;2023-10-31T07:27:48;97433.56;;;10.41;89.31
41140;BME280;26881;48.784;9.192;2023-10-31T07:33:10;97440.25;;;10.45;88.50
41140;BME280;26881;48.784;9.192;2023-10-31T07:38:32;97453.34;;;10.56;87.12
41140;BME280;26881;48.784;9.192;2023-10-31T07:43:55;97456.50;;;10.48;87.56
41140;BME280;26881;48.784;9.192;2023-10-31T07:49:17;97456.88;;;10.66;87.17
41140;BME280;26881;48.784;9.192;2023-10-31T07:54:39;97465.47;;;10.80;86.27
41140;BME280;26881;48.784;9.192;2023-10-31T08:00:02;97465.47;;;10.91;87.31
41140;BME280;26881;48.784;9.192;2023-10-31T08:05:24;97467.56;;;11.08;84.13
41140;BME280;26881;48.784;9.192;2023-10-31T08:10:46;97474.06;;;11.25;81.44
41140;BME280;26881;48.784;9.192;2023-10-31T08:16:08;97470.75;;;11.23;80.78
41140;BME280;26881;48.784;9.192;2023-10-31T08:21:30;97481.09;;;11.36;80.49
41140;BME280;26881;48.784;9.192;2023-10-31T08:26:56;97486.84;;;11.62;80.50
41140;BME280;26881;48.784;9.192;2023-10-31T08:32:18;97486.22;;;11.70;78.97
41140;BME280;26881;48.784;9.192;2023-10-31T08:37:40;97503.72;;;11.69;79.87
41140;BME280;26881;48.784;9.192;2023-10-31T08:43:02;97505.56;;;12.01;78.57
41140;BME280;26881;48.784;9.192;2023-10-31T08:48:26;97511.38;;;12.26;77.43
41140;BME280;26881;48.784;9.192;2023-10-31T08:53:48;97513.44;;;12.43;75.54
41140;BME280;26881;48.784;9.192;2023-10-31T08:59:10;97501.25;;;12.63;74.14
41140;BME280;26881;48.784;9.192;2023-10-31T09:04:31;97508.13;;;12.54;74.81
41140;BME280;26881;48.784;9.192;2023-10-31T09:09:53;97496.72;;;12.96;73.38
41140;BME280;26881;48.784;9.192;2023-10-31T09:15:15;97508.19;;;13.85;68.41
41140;BME280;26881;48.784;9.192;2023-10-31T09:20:37;97517.00;;;14.43;64.74
41140;BME280;26881;48.784;9.192;2023-10-31T09:25:59;97511.50;;;14.26;64.94
41140;BME280;26881;48.784;9.192;2023-10-31T09:31:21;97509.22;;;15.17;60.81
41140;BME280;26881;48.784;9.192;2023-10-31T09:36:43;97503.59;;;15.58;58.94
41140;BME280;26881;48.784;9.192;2023-10-31T09:42:07;97508.47;;;14.98;61.02
41140;BME280;26881;48.784;9.192;2023-10-31T09:47:30;97498.84;;;15.62;58.14
41140;BME280;26881;48.784;9.192;2023-10-31T09:52:52;97504.09;;;15.62;58.31
41140;BME280;26881;48.784;9.192;2023-10-31T09:58:14;97499.38;;;15.65;56.88
41140;BME280;26881;48.784;9.192;2023-10-31T10:03:36;97503.44;;;15.59;57.93
41140;BME280;26881;48.784;9.192;2023-10-31T10:09:00;97507.34;;;14.33;61.74
41140;BME280;26881;48.784;9.192;2023-10-31T10:14:27;97510.59;;;13.38;67.45
41140;BME280;26881;48.784;9.192;2023-10-31T10:20:05;97510.81;;;12.95;70.11
41140;BME280;26881;48.784;9.192;2023-10-31T10:25:29;97519.28;;;12.98;71.90
41140;BME280;26881;48.784;9.192;2023-10-31T10:31:04;97527.44;;;13.05;71.31
41140;BME280;26881;48.784;9.192;2023-10-31T10:36:28;97533.28;;;13.18;72.06
41140;BME280;26881;48.784;9.192;2023-10-31T10:41:55;97539.97;;;12.92;71.97
41140;BME280;26881;48.784;9.192;2023-10-31T10:47:19;97548.81;;;12.49;75.60
41140;BME280;26881;48.784;9.192;2023-10-31T10:52:49;97539.47;;;12.56;74.67
41140;BME280;26881;48.784;9.192;2023-10-31T10:58:19;97552.97;;;12.51;75.76
41140;BME280;26881;48.784;9.192;2023-10-31T11:03:45;97549.94;;;12.77;74.86
41140;BME280;26881;48.784;9.192;2023-10-31T11:09:08;97539.41;;;12.98;73.05
41140;BME280;26881;48.784;9.192;2023-10-31T11:14:32;97536.09;;;13.57;68.48
41140;BME280;26881;48.784;9.192;2023-10-31T11:19:55;97547.44;;;13.77;68.27
41140;BME280;26881;48.784;9.192;2023-10-31T11:25:19;97541.75;;;13.62;69.56
41140;BME280;26881;48.784;9.192;2023-10-31T11:30:53;97540.00;;;13.32;71.56
41140;BME280;26881;48.784;9.192;2023-10-31T11:36:22;97545.06;;;13.24;71.08
41140;BME280;26881;48.784;9.192;2023-10-31T11:41:50;97547.53;;;13.16;72.54
41140;BME280;26881;48.784;9.192;2023-10-31T11:47:15;97550.47;;;13.22;71.39
41140;BME280;26881;48.784;9.192;2023-10-31T11:52:38;97556.03;;;13.29;72.05
41140;BME280;26881;48.784;9.192;2023-10-31T11:58:23;97560.09;;;13.43;72.31
41140;BME280;26881;48.784;9.192;2023-10-31T12:03:47;97559.00;;;13.45;70.34
41140;BME280;26881;48.784;9.192;2023-10-31T12:09:10;97566.31;;;13.42;71.65
41140;BME280;26881;48.784;9.192;2023-10-31T12:14:32;97564.28;;;13.24;71.63
41140;BME280;26881;48.784;9.192;2023-10-31T12:19:54;97567.63;;;13.26;71.57
41140;BME280;26881;48.784;9.192;2023-10-31T12:25:16;97575.13;;;13.31;71.60
41140;BME280;26881;48.784;9.192;2023-10-31T12:30:44;97582.31;;;13.29;72.18
41140;BME280;26881;48.784;9.192;2023-10-31T12:36:07;97590.53;;;13.45;72.45
41140;BME280;26881;48.784;9.192;2023-10-31T12:41:30;97587.28;;;13.32;77.36
41140;BME280;26881;48.784;9.192;2023-10-31T12:46:52;97595.16;;;13.11;78.74
41140;BME280;26881;48.784;9.192;2023-10-31T12:52:14;97584.69;;;12.90;81.67
41140;BME280;26881;48.784;9.192;2023-10-31T12:57:36;97591.53;;;12.81;83.63
41140;BME280;26881;48.784;9.192;2023-10-31T13:03:08;97586.94;;;12.74;85.16
41140;BME280;26881;48.784;9.192;2023-10-31T13:08:34;97598.72;;;12.79;84.36
41140;BME280;26881;48.784;9.192;2023-10-31T13:13:56;97600.63;;;12.98;82.24
41140;BME280;26881;48.784;9.192;2023-10-31T13:19:18;97600.22;;;13.03;80.80
41140;BME280;26881;48.784;9.192;2023-10-31T13:24:40;97602.06;;;13.33;77.55
41140;BME280;26881;48.784;9.192;2023-10-31T13:30:03;97609.94;;;13.33;76.92
41140;BME280;26881;48.784;9.192;2023-10-31T13:35:25;97614.53;;;13.31;78.28
41140;BME280;26881;48.784;9.192;2023-10-31T13:40:47;97615.50;;;13.19;79.57
41140;BME280;26881;48.784;9.192;2023-10-31T13:46:10;97626.16;;;13.38;78.32
41140;BME280;26881;48.784;9.192;2023-10-31T13:51:32;97632.94;;;13.20;79.56
41140;BME280;26881;48.784;9.192;2023-10-31T13:56:55;97636.72;;;13.06;80.24
41140;BME280;26881;48.784;9.192;2023-10-31T14:02:17;97644.81;;;13.24;79.41
41140;BME280;26881;48.784;9.192;2023-10-31T14:07:39;97642.91;;;13.26;78.54
41140;BME280;26881;48.784;9.192;2023-10-31T14:13:01;97641.75;;;13.19;78.44
41140;BME280;26881;48.784;9.192;2023-10-31T14:18:23;97648.44;;;13.23;78.10
41140;BME280;26881;48.784;9.192;2023-10-31T14:23:45;97656.56;;;13.41;77.39
41140;BME280;26881;48.784;9.192;2023-10-31T14:29:18;97655.44;;;13.34;76.88
41140;BME280;26881;48.784;9.192;2023-10-31T14:34:40;97666.94;;;13.21;78.20
41140;BME280;26881;48.784;9.192;2023-10-31T14:40:02;97667.41;;;13.26;78.33
41140;BME280;26881;48.784;9.192;2023-10-31T14:45:25;97669.94;;;13.38;77.09
41140;BME280;26881;48.784;9.192;2023-10-31T14:50:47;97677.16;;;13.36;77.18
41140;BME280;26881;48.784;9.192;2023-10-31T14:56:10;97676.75;;;13.19;78.86
41140;BME280;26881;48.784;9.192;2023-10-31T15:01:32;97679.28;;;13.10;78.35
41140;BME280;26881;48.784;9.192;2023-10-31T15:06:54;97688.63;;;13.02;77.69
41140;BME280;26881;48.784;9.192;2023-10-31T15:12:16;97689.41;;;12.93;75.93
41140;BME280;26881;48.784;9.192;2023-10-31T15:17:39;97709.31;;;12.96;75.80
41140;BME280;26881;48.784;9.192;2023-10-31T15:23:01;97713.59;;;12.76;76.83
41140;BME280;26881;48.784;9.192;2023-10-31T15:28:23;97714.69;;;12.73;80.97
41140;BME280;26881;48.784;9.192;2023-10-31T15:33:46;97732.00;;;12.64;81.85
41140;BME280;26881;48.784;9.192;2023-10-31T15:39:08;97732.63;;;12.57;83.24
41140;BME280;26881;48.784;9.192;2023-10-31T15:44:33;97741.78;;;12.62;82.51
41140;BME280;26881;48.784;9.192;2023-10-31T15:49:55;97743.81;;;12.59;84.24
41140;BME280;26881;48.784;9.192;2023-10-31T15:55:17;97748.09;;;12.60;85.52
41140;BME280;26881;48.784;9.192;2023-10-31T16:00:39;97750.81;;;12.70;81.97
41140;BME280;26881;48.784;9.192;2023-10-31T16:06:01;97765.28;;;12.53;81.59
41140;BME280;26881;48.784;9.192;2023-10-31T16:11:23;97779.69;;;12.58;81.73
41140;BME280;26881;48.784;9.192;2023-10-31T16:16:45;97776.25;;;12.47;81.32
41140;BME280;26881;48.784;9.192;2023-10-31T16:22:07;97796.78;;;12.41;81.36
41140;BME280;26881;48.784;9.192;2023-10-31T16:27:29;97802.28;;;12.27;82.39
41140;BME280;26881;48.784;9.192;2023-10-31T16:32:51;97805.63;;;12.29;82.84
41140;BME280;26881;48.784;9.192;2023-10-31T16:38:13;97814.09;;;12.10;84.10
41140;BME280;26881;48.784;9.192;2023-10-31T16:43:35;97825.38;;;11.99;86.04
41140;BME280;26881;48.784;9.192;2023-10-31T16:48:57;97836.16;;;11.84;87.87
41140;BME280;26881;48.784;9.192;2023-10-31T16:54:19;97835.94;;;11.87;88.27
41140;BME280;26881;48.784;9.192;2023-10-31T16:59:41;97852.47;;;11.76;89.48
41140;BME280;26881;48.784;9.192;2023-10-31T17:05:03;97849.47;;;11.69;91.15
41140;BME280;26881;48.784;9.192;2023-10-31T17:10:26;97862.31;;;11.72;90.91
41140;BME280;26881;48.784;9.192;2023-10-31T17:15:47;97866.00;;;11.70;91.30
41140;BME280;26881;48.784;9.192;2023-10-31T17:21:09;97873.63;;;11.62;92.40
41140;BME280;26881;48.784;9.192;2023-10-31T17:26:31;97884.78;;;11.52;92.57
41140;BME280;26881;48.784;9.192;2023-10-31T17:31:53;97889.19;;;11.52;92.23
41140;BME280;26881;48.784;9.192;2023-10-31T17:37:15;97886.19;;;11.45;93.03
41140;BME280;26881;48.784;9.192;2023-10-31T17:42:37;97896.66;;;11.45;93.35
41140;BME280;26881;48.784;9.192;2023-10-31T17:47:59;97900.38;;;11.30;95.16
41140;BME280;26881;48.784;9.192;2023-10-31T17:53:21;97908.56;;;11.25;95.74
41140;BME280;26881;48.784;9.192;2023-10-31T17:58:43;97920.56;;;11.16;96.77
41140;BME280;26881;48.784;9.192;2023-10-31T18:04:05;97933.91;;;11.01;98.26
41140;BME280;26881;48.784;9.192;2023-10-31T18:09:27;97942.06;;;10.96;98.52
41140;BME280;26881;48.784;9.192;2023-10-31T18:14:49;97953.47;;;10.95;98.76
41140;BME280;26881;48.784;9.192;2023-10-31T18:20:11;97966.56;;;10.95;98.54
41140;BME280;26881;48.784;9.192;2023-10-31T18:25:33;97967.69;;;11.16;96.54
41140;BME280;26881;48.784;9.192;2023-10-31T18:30:55;97970.16;;;11.18;96.66
41140;BME280;26881;48.784;9.192;2023-10-31T18:36:17;97975.16;;;11.21;95.34
41140;BME280;26881;48.784;9.192;2023-10-31T18:41:51;97983.16;;;11.20;96.27
41140;BME280;26881;48.784;9.192;2023-10-31T18:47:27;97989.63;;;11.27;95.28
41140;BME280;26881;48.784;9.192;2023-10-31T18:52:50;97994.22;;;11.23;95.74
41140;BME280;26881;48.784;9.192;2023-10-31T18:58:12;97998.59;;;11.35;95.27
41140;BME280;26881;48.784;9.192;2023-10-31T19:03:34;97998.72;;;11.34;95.73
41140;BME280;26881;48.784;9.192;2023-10-31T19:08:56;97994.63;;;11.30;95.43
41140;BME280;26881;48.784;9.192;2023-10-31T19:14:18;98001.09;;;11.37;95.63
41140;BME280;26881;48.784;9.192;2023-10-31T19:19:40;98015.25;;;11.34;96.50
41140;BME280;26881;48.784;9.192;2023-10-31T19:25:02;98016.94;;;11.35;96.61
41140;BME280;26881;48.784;9.192;2023-10-31T19:30:24;98007.63;;;11.31;96.61
41140;BME280;26881;48.784;9.192;2023-10-31T19:35:46;98013.66;;;11.45;95.04
41140;BME280;26881;48.784;9.192;2023-10-31T19:41:08;98014.09;;;11.38;94.78
41140;BME280;26881;48.784;9.192;2023-10-31T19:46:30;98025.06;;;11.44;96.00
41140;BME280;26881;48.784;9.192;2023-10-31T19:51:52;98024.78;;;11.35;97.08
41140;BME280;26881;48.784;9.192;2023-10-31T19:57:14;98024.47;;;11.40;97.25
41140;BME280;26881;48.784;9.192;2023-10-31T20:02:38;98022.38;;;11.32;97.38
41140;BME280;26881;48.784;9.192;2023-10-31T20:08:04;98021.84;;;11.40;97.40
41140;BME280;26881;48.784;9.192;2023-10-31T20:13:26;98014.31;;;11.35;97.42
41140;BME280;26881;48.784;9.192;2023-10-31T20:18:47;98018.59;;;11.36;96.90
41140;BME280;26881;48.784;9.192;2023-10-31T20:24:10;98025.84;;;11.33;96.23
41140;BME280;26881;48.784;9.192;2023-10-31T20:29:32;98032.19;;;11.42;95.67
41140;BME280;26881;48.784;9.192;2023-10-31T20:34:54;98031.84;;;11.46;94.93
41140;BME280;26881;48.784;9.192;2023-10-31T20:40:16;98034.72;;;11.43;95.13
41140;BME280;26881;48.784;9.192;2023-10-31T20:45:38;98030.22;;;11.32;95.32
41140;BME280;26881;48.784;9.192;2023-10-31T20:51:00;98031.50;;;11.27;95.74
41140;BME280;26881;48.784;9.192;2023-10-31T20:56:22;98034.53;;;11.21;95.27
41140;BME280;26881;48.784;9.192;2023-10-31T21:01:44;98046.19;;;11.16;95.39
41140;BME280;26881;48.784;9.192;2023-10-31T21:07:06;98050.88;;;11.11;95.77
41140;BME280;26881;48.784;9.192;2023-10-31T21:12:29;98041.06;;;11.02;95.81
41140;BME280;26881;48.784;9.192;2023-10-31T21:17:56;98036.56;;;11.04;95.85
41140;BME280;26881;48.784;9.192;2023-10-31T21:23:19;98036.78;;;11.01;95.68
41140;BME280;26881;48.784;9.192;2023-10-31T21:28:40;98035.75;;;10.91;96.99
41140;BME280;26881;48.784;9.192;2023-10-31T21:34:03;98029.88;;;10.87;96.68
41140;BME280;26881;48.784;9.192;2023-10-31T21:39:25;98034.28;;;10.87;96.76
41140;BME280;26881;48.784;9.192;2023-10-31T21:44:46;98032.50;;;10.87;96.73
41140;BME280;26881;48.784;9.192;2023-10-31T21:50:08;98028.72;;;10.79;97.34
41140;BME280;26881;48.784;9.192;2023-10-31T21:55:30;98033.47;;;10.61;98.43
41140;BME280;26881;48.784;9.192;2023-10-31T22:00:52;98032.59;;;10.60;99.08
41140;BME280;26881;48.784;9.192;2023-10-31T22:06:14;98028.19;;;10.48;99.63
41140;BME280;26881;48.784;9.192;2023-10-31T22:11:36;98042.97;;;10.49;98.97
41140;BME280;26881;48.784;9.192;2023-10-31T22:16:58;98039.72;;;10.45;98.76
41140;BME280;26881;48.784;9.192;2023-10-31T22:22:20;98041.97;;;10.37;99.15
41140;BME280;26881;48.784;9.192;2023-10-31T22:27:42;98049.88;;;10.23;100.00
41140;BME280;26881;48.784;9.192;2023-10-31T22:33:04;98052.03;;;10.30;100.00
41140;BME280;26881;48.784;9.192;2023-10-31T22:38:26;98051.59;;;10.37;98.82
41140;BME280;26881;48.784;9.192;2023-10-31T22:43:48;98044.94;;;10.45;97.27
41140;BME280;26881;48.784;9.192;2023-10-31T22:49:10;98047.66;;;10.44;96.94
41140;BME280;26881;48.784;9.192;2023-10-31T22:54:31;98039.50;;;10.48;96.63
41140;BME280;26881;48.784;9.192;2023-10-31T22:59:53;98040.53;;;10.46;96.08
41140;BME280;26881;48.784;9.192;2023-10-31T23:05:15;98040.31;;;10.36;96.91
41140;BME280;26881;48.784;9.192;2023-10-31T23:10:38;98036.75;;;10.37;96.74
41140;BME280;26881;48.784;9.192;2023-10-31T23:16:00;98027.47;;;10.46;95.16
41140;BME280;26881;48.784;9.192;2023-10-31T23:21:22;98028.50;;;10.43;94.54
41140;BME280;26881;48.784;9.192;2023-10-31T23:26:44;98036.78;;;10.50;94.47
41140;BME280;26881;48.784;9.192;2023-10-31T23:32:06;98030.72;;;10.49;93.50
41140;BME280;26881;48.784;9.192;2023-10-31T23:37:28;98028.72;;;10.53;92.79
41140;BME280;26881;48.784;9.192;2023-10-31T23:42:50;98016.28;;;10.57;92.52
41140;BME280;26881;48.784;9.192;2023-10-31T23:48:12;98019.53;;;10.60;91.79
41140;BME280;26881;48.784;9.192;2023-10-31T23:53:34;98020.06;;;10.65;91.38
41140;BME280;26881;48.784;9.192;2023-10-31T23:58:56;98029.47;;;10.68;91.28
